Terminal Aerodrome Forecast
Issued by NWS

Current Version | Previous Version | Graphics & Text | Print | Product List | Glossary On
Versions: 1 2 3 4 5 6 7 8 9 10 11 12 13 14 15 16 17 18 19 20 21 22 23 24 25
000
FTUS41 KPBZ 260539
TAFMGW
TAF
KMGW 260539Z 2606/2706 22005KT P6SM SCT080
     FM261200 24010G20KT P6SM VCSH BKN035
      TEMPO 2612/2614 5SM -SHRA
     FM262100 25010G20KT 5SM -SHRA VCTS OVC035CB=

USA.gov is the U.S. government's official web portal to all federal, state and local government web resources and services.